Terminal Aerodrome Forecast
Issued by NWS

Home | Current Version | Previous Version | Text Only | Print | Product List | Glossary On
Versions: 1 2 3 4 5 6 7 8 9 10 11 12 13 14 15
000
FTUS43 KEAX 011200 AAA
TAFMKC
TAF AMD
KMKC 011206Z 0112/0212 15013KT P6SM BKN200
     FM011500 16012G20KT P6SM SCT050
     FM012100 18020G30KT P6SM BKN050
     FM020500 18010G20KT P6SM BKN050
     FM020900 25013KT 3SM -TSRA SCT015CB OVC025=

USA.gov is the U.S. government's official web portal to all federal, state and local government web resources and services.